createdAt,value
2022-12-04T00:00:13.166Z,16.88
2022-12-04T00:06:59.275Z,15.88
2022-12-04T00:13:47.451Z,16.97
2022-12-04T00:20:32.874Z,15.57
2022-12-04T00:27:18.299Z,15.88
2022-12-04T00:34:08.314Z,16.98
2022-12-04T00:40:55.098Z,17.50
2022-12-04T00:47:40.573Z,17.30
2022-12-04T00:54:28.856Z,17.10
2022-12-04T01:01:17.623Z,17.52
2022-12-04T01:08:03.248Z,18.02
2022-12-04T01:14:51.667Z,17.70
2022-12-04T01:21:37.182Z,17.25
2022-12-04T01:28:23.160Z,17.30
2022-12-04T01:35:12.264Z,17.40
2022-12-04T01:41:57.745Z,17.27
2022-12-04T01:48:48.959Z,17.92
2022-12-04T01:55:37.452Z,16.77
2022-12-04T02:02:29.416Z,18.20
2022-12-04T02:09:15.094Z,18.02
2022-12-04T02:16:17.103Z,18.23
2022-12-04T02:23:37.307Z,17.58
2022-12-04T02:30:25.715Z,17.65
2022-12-04T02:37:17.488Z,18.08
2022-12-04T02:44:10.375Z,18.25
2022-12-04T02:51:01.104Z,19.42
2022-12-04T02:57:52.399Z,18.63
2022-12-04T03:04:39.298Z,18.58
2022-12-04T03:18:21.531Z,17.20
2022-12-04T03:25:09.157Z,18.73
2022-12-04T03:32:05.282Z,18.83
2022-12-04T03:38:58.259Z,18.20
2022-12-04T04:06:50.524Z,18.30
2022-12-04T04:13:54.574Z,19.92
2022-12-04T04:20:58.884Z,17.33
2022-12-04T04:27:54.639Z,17.50
2022-12-04T04:34:48.379Z,17.33
2022-12-04T04:41:43.344Z,17.98
2022-12-04T04:48:35.677Z,17.10
2022-12-04T04:55:23.341Z,15.57
2022-12-04T05:02:08.813Z,17.30
2022-12-04T05:08:56.863Z,16.10
2022-12-04T05:15:43.020Z,16.17
2022-12-04T05:22:31.836Z,17.00
2022-12-04T05:29:19.832Z,13.77
2022-12-04T05:36:09.559Z,14.90
2022-12-04T05:42:54.923Z,16.83
2022-12-04T05:49:42.962Z,14.90
2022-12-04T05:56:28.495Z,14.40
2022-12-04T06:03:14.046Z,16.00
2022-12-04T06:10:02.377Z,15.48
2022-12-04T06:16:49.997Z,18.50
2022-12-04T06:23:35.470Z,15.32
2022-12-04T06:30:23.603Z,14.48
2022-12-04T06:37:09.523Z,18.30
2022-12-04T06:43:55.384Z,15.90
2022-12-04T06:50:43.689Z,15.40
2022-12-04T06:57:29.143Z,15.13
2022-12-04T07:04:14.532Z,15.07
2022-12-04T07:11:05.943Z,16.25
2022-12-04T07:17:51.500Z,14.90
2022-12-04T07:24:37.519Z,14.50
2022-12-04T07:31:28.337Z,14.93
2022-12-04T07:38:13.831Z,15.70
2022-12-04T07:44:59.327Z,16.45
2022-12-04T07:51:47.320Z,14.98
2022-12-04T07:58:32.765Z,16.98
2022-12-04T08:05:18.529Z,20.80
2022-12-04T08:12:06.749Z,19.92
2022-12-04T08:18:52.307Z,19.65
2022-12-04T08:25:38.123Z,24.08
2022-12-04T08:32:26.953Z,23.85
2022-12-04T08:39:13.850Z,22.83
2022-12-04T08:52:48.570Z,23.88
2022-12-04T08:59:34.153Z,23.80
2022-12-04T09:06:20.368Z,23.08
2022-12-04T09:13:08.959Z,22.83
2022-12-04T09:19:59.244Z,22.60
2022-12-04T09:26:46.444Z,25.40
2022-12-04T09:33:35.443Z,23.45
2022-12-04T09:40:37.250Z,23.02
2022-12-04T09:47:27.952Z,31.48
2022-12-04T09:54:21.044Z,25.38
2022-12-04T10:01:08.195Z,34.58
2022-12-04T10:08:08.628Z,25.30
2022-12-04T10:15:15.236Z,23.63
2022-12-04T10:22:14.811Z,24.90
2022-12-04T10:29:07.275Z,25.13
2022-12-04T10:35:57.608Z,23.50
2022-12-04T10:42:52.664Z,22.05
2022-12-04T10:49:40.662Z,24.02
2022-12-04T10:56:30.135Z,23.52
2022-12-04T11:03:28.778Z,23.40
2022-12-04T11:10:29.603Z,25.65
2022-12-04T11:17:22.490Z,24.95
2022-12-04T11:24:08.781Z,29.52
2022-12-04T11:30:57.429Z,26.02
2022-12-04T11:37:45.763Z,28.95
2022-12-04T11:44:34.138Z,28.05
2022-12-04T11:51:32.574Z,28.58
2022-12-04T11:58:42.456Z,30.08
2022-12-04T12:06:00.245Z,30.50
2022-12-04T12:13:02.344Z,25.25
2022-12-04T12:20:18.196Z,23.98
2022-12-04T12:27:28.245Z,27.75
2022-12-04T12:34:19.306Z,45.45
2022-12-04T12:41:13.651Z,25.75
2022-12-04T12:48:03.554Z,29.98
2022-12-04T12:54:57.313Z,29.40
2022-12-04T13:01:55.964Z,29.40
2022-12-04T13:08:51.079Z,26.35
2022-12-04T13:15:44.651Z,31.73
2022-12-04T13:22:42.687Z,26.02
2022-12-04T13:29:48.824Z,32.85
2022-12-04T13:37:04.832Z,27.77
2022-12-04T13:43:54.157Z,28.40
2022-12-04T13:50:42.033Z,27.58
2022-12-04T13:57:28.297Z,26.42
2022-12-04T14:04:28.990Z,26.80
2022-12-04T14:11:20.109Z,29.63
2022-12-04T14:18:09.858Z,29.33
2022-12-04T14:25:11.110Z,29.10
2022-12-04T14:31:59.045Z,27.95
2022-12-04T14:38:48.867Z,26.95
2022-12-04T14:45:48.419Z,28.95
2022-12-04T14:52:41.928Z,27.35
2022-12-04T14:59:37.363Z,27.98
2022-12-04T15:06:30.936Z,28.42
2022-12-04T15:13:21.480Z,26.15
2022-12-04T15:20:19.995Z,28.25
2022-12-04T15:27:10.260Z,25.08
2022-12-04T15:34:00.848Z,25.55
2022-12-04T15:40:55.859Z,29.08
2022-12-04T15:47:58.247Z,29.13
2022-12-04T15:54:47.331Z,26.45
2022-12-04T16:01:43.295Z,28.15
2022-12-04T16:08:35.899Z,29.63
2022-12-04T16:15:21.372Z,31.92
2022-12-04T16:22:20.363Z,28.25
2022-12-04T16:29:08.716Z,28.17
2022-12-04T16:35:54.117Z,28.10
2022-12-04T16:42:39.733Z,40.60
2022-12-04T16:49:27.788Z,71.88
2022-12-04T16:56:13.924Z,114.30
2022-12-04T17:03:00.117Z,38.07
2022-12-04T17:09:48.693Z,30.30
2022-12-04T17:16:34.114Z,28.20
2022-12-04T17:23:19.736Z,28.02
2022-12-04T17:30:10.084Z,34.70
2022-12-04T17:36:56.356Z,27.75
2022-12-04T17:43:41.815Z,29.00
2022-12-04T17:50:30.227Z,28.33
2022-12-04T17:57:16.966Z,28.17
2022-12-04T18:04:04.723Z,27.60
2022-12-04T18:10:53.169Z,28.45
2022-12-04T18:17:39.758Z,29.38
2022-12-04T18:24:26.657Z,28.20
2022-12-04T18:38:00.572Z,30.35
2022-12-04T18:44:46.279Z,28.90
2022-12-04T18:51:39.649Z,31.27
2022-12-04T18:58:25.212Z,29.95
2022-12-04T19:05:11.566Z,33.15
2022-12-04T19:11:59.684Z,33.60
2022-12-04T19:18:46.831Z,32.85
2022-12-04T19:32:20.066Z,48.72
2022-12-04T19:39:08.804Z,30.40
2022-12-04T19:45:54.274Z,29.55
2022-12-04T19:52:42.655Z,30.70
2022-12-04T19:59:33.034Z,28.58
2022-12-04T20:06:24.944Z,27.70
2022-12-04T20:13:14.475Z,32.72
2022-12-04T20:19:59.926Z,29.95
2022-12-04T20:26:47.604Z,31.25
2022-12-04T20:33:35.651Z,28.65
2022-12-04T20:40:21.557Z,27.27
2022-12-04T20:47:07.068Z,29.90
2022-12-04T20:53:58.062Z,31.73
2022-12-04T21:00:43.949Z,32.17
2022-12-04T21:07:29.522Z,28.10
2022-12-04T21:14:34.394Z,27.95
2022-12-04T21:21:20.505Z,26.05
2022-12-04T21:28:05.955Z,24.93
2022-12-04T21:34:54.277Z,30.42
2022-12-04T21:41:52.256Z,26.55
2022-12-04T21:48:39.299Z,26.45
2022-12-04T21:55:27.588Z,27.58
2022-12-04T22:02:14.164Z,37.15
2022-12-04T22:08:59.668Z,29.70
2022-12-04T22:15:47.795Z,27.77
2022-12-04T22:22:33.284Z,29.92
2022-12-04T22:29:48.652Z,27.98
2022-12-04T22:36:30.793Z,29.75
2022-12-04T22:43:16.219Z,28.35
2022-12-04T22:50:01.611Z,27.67
2022-12-04T22:56:49.669Z,30.42
2022-12-04T23:03:35.234Z,29.60
2022-12-04T23:10:20.766Z,28.60
2022-12-04T23:17:08.833Z,33.55
2022-12-04T23:23:57.192Z,27.92
2022-12-04T23:30:49.156Z,29.40
2022-12-04T23:37:37.209Z,31.27
2022-12-04T23:44:22.668Z,28.83
2022-12-04T23:51:08.307Z,32.97
2022-12-04T23:57:56.810Z,30.60
